Latest Weather Observations for Point Stuart

IDD60901

Issued at 1:55 pm CST Monday 21 April 2014 (issued every 10 minutes, with the page automatically refreshed every 10 minutes)

About weather observations | Map of Darwin area stations | Latest observations for Darwin area | Other Formats
Station Details ID: 014254 Name: POINT STUART Lat: -12.24 Lon: 131.88 Height: 1.0 m
Data from the previous 72 hours. | See also: Recent months for locations in Northern Territory
Date/Time
CST
Tmp

°C
App
Tmp
°C
Dew
Point
°C
Rel
Hum
%
Delta-T

°C
Wind Press
QNH
hPa
Press
MSL
hPa
Rain
since
9 am
mm
Dir
 
Spd
km/h
Gust
km/h
Spd
kts
Gust
kts
21/01:30pm 30.4 31.7 22.3 62 5.5 ENE 19 24 10 13 1008.9 - 0.0
21/01:00pm 30.5 31.8 22.7 63 5.3 NE 20 28 11 15 1009.1 - 0.0
21/12:30pm 30.5 32.7 23.2 65 5.0 ENE 17 24 9 13 1009.5 - 0.0
21/12:00pm 30.1 31.2 22.3 63 5.3 E 20 26 11 14 1009.8 1009.8 0.0
21/11:30am 30.0 30.5 21.9 62 5.5 E 22 30 12 16 1010.2 - 0.0
21/11:00am 29.8 29.8 21.7 61 5.4 E 24 33 13 18 1010.4 - 0.0
21/10:30am 29.0 30.3 22.7 69 4.3 E 20 30 11 16 1010.7 - 0.0
21/10:00am 28.6 29.3 21.6 66 4.7 E 20 28 11 15 1010.7 - 0.0
21/09:30am 27.9 29.2 22.4 72 3.7 E 19 24 10 13 1010.5 - 0.0
21/09:00am 26.9 28.7 22.5 77 3.0 ESE 17 22 9 12 1010.4 1010.4 0.0
21/08:30am 25.9 28.7 23.0 84 2.0 SE 13 22 7 12 1010.2 - 0.0
21/08:00am 25.0 27.9 23.1 89 1.3 SE 13 15 7 8 1010.1 - 0.0
21/07:30am 23.9 27.4 22.9 94 0.7 ESE 9 11 5 6 1009.7 - 0.0
21/07:00am 23.3 27.2 22.6 96 0.5 SE 6 7 3 4 1009.4 - 0.0
21/06:30am 23.4 27.0 22.4 94 0.7 ESE 7 11 4 6 1009.2 - 0.0
21/06:00am 23.8 26.9 22.1 90 1.1 ESE 9 13 5 7 1008.9 1008.9 0.0
21/05:30am 24.0 26.7 22.1 89 1.3 SE 11 15 6 8 1008.8 - 0.0
21/05:00am 24.0 26.9 22.4 91 1.1 SE 11 13 6 7 1008.6 - 0.0
21/04:30am 24.0 27.6 23.0 94 0.7 SE 9 11 5 6 1008.6 - 0.0
21/04:00am 24.1 27.7 23.1 94 0.7 SE 9 13 5 7 1008.7 - 0.0
21/03:30am 24.2 27.9 23.2 94 0.7 SE 9 13 5 7 1008.7 - 0.0
21/03:00am 24.4 28.6 23.4 94 0.7 SE 7 9 4 5 1008.8 1008.8 0.0
21/02:30am 24.7 28.8 23.3 92 0.9 SE 7 9 4 5 1008.9 - 0.0
21/02:00am 25.3 28.9 23.0 87 1.6 ESE 9 11 5 6 1009.0 - 0.0
21/01:30am 25.5 28.6 22.8 85 1.8 SE 11 15 6 8 1009.3 - 0.0
21/01:00am 25.5 28.6 22.8 85 1.8 SE 11 15 6 8 1009.6 - 0.0
21/12:30am 25.3 28.6 23.2 88 1.4 SE 11 13 6 7 1009.9 - 0.0
21/12:00am 25.8 28.9 22.9 84 2.0 SE 11 17 6 9 1009.9 1009.9 0.0
 
Date/Time
CST
Tmp

°C
App
Tmp
°C
Dew
Point
°C
Rel
Hum
%
Delta-T

°C
Wind Press
QNH
hPa
Press
MSL
hPa
Rain
since
9 am
mm
Dir
 
Spd
km/h
Gust
km/h
Spd
kts
Gust
kts
20/11:30pm 26.2 29.4 23.1 83 2.1 E 11 15 6 8 1010.1 - 0.0
20/11:00pm 26.6 29.2 23.3 82 2.2 ESE 15 20 8 11 1010.0 - 0.0
20/10:30pm 27.1 29.7 23.3 80 2.6 E 15 22 8 12 1010.2 - 0.0
20/10:00pm 27.4 28.4 22.8 76 3.1 E 22 33 12 18 1010.5 - 0.0
20/09:38pm 28.7 27.7 22.7 70 4.1 E 32 39 17 21 1010.8 - 0.0
20/09:30pm 28.0 32.1 24.6 82 2.4 E 11 17 6 9 1010.6 - 0.0
20/09:00pm 27.5 32.2 25.5 89 1.4 E 11 17 6 9 1010.0 1010.0 0.0
20/08:30pm 27.7 29.5 24.3 82 2.4 ENE 22 33 12 18 1009.6 - 0.0
20/08:20pm 28.1 28.6 23.9 78 2.9 ENE 28 41 15 22 1009.7 - 0.0
20/08:00pm 27.5 34.9 26.4 94 0.8 CALM 0 0 0 0 1009.1 - 0.0
20/07:30pm 27.7 33.1 23.3 77 3.0 CALM 0 6 0 3 1008.8 - 0.0
20/07:00pm 28.3 32.4 23.0 73 3.6 N 6 7 3 4 1008.4 - 0.0
20/06:30pm 29.5 34.6 22.7 67 4.6 CALM 0 0 0 0 1008.2 - 0.0
20/06:00pm 30.4 34.6 23.1 65 5.0 N 6 7 3 4 1007.8 1007.8 0.0
20/05:30pm 31.1 35.3 23.2 63 5.4 NNE 6 9 3 5 1007.6 - 0.0
20/05:00pm 31.3 35.2 22.9 61 5.8 N 7 13 4 7 1007.2 - 0.0
20/04:30pm 31.8 35.7 23.6 62 5.7 NNE 9 17 5 9 1007.1 - 0.0
20/04:00pm 31.4 34.3 23.2 61 5.6 NNE 13 19 7 10 1007.0 - 0.0
20/03:30pm 31.6 34.1 23.2 61 5.8 NE 15 20 8 11 1006.9 - 0.0
20/03:00pm 32.0 34.9 23.8 62 5.7 NE 15 20 8 11 1007.2 1007.2 0.0
20/02:30pm 31.9 33.0 22.0 55 6.7 E 19 24 10 13 1007.5 - 0.0
20/02:00pm 31.7 34.0 23.5 62 5.7 NE 17 24 9 13 1007.9 - 0.0
20/01:30pm 31.6 32.9 22.6 59 6.2 E 20 28 11 15 1008.3 - 0.0
20/01:00pm 31.4 32.7 22.7 60 6.0 E 20 30 11 16 1008.7 - 0.0
20/12:30pm 31.1 32.2 23.0 62 5.6 E 22 28 12 15 1008.9 - 0.0
20/12:00pm 30.5 30.8 21.6 59 6.0 E 22 32 12 17 1009.3 1009.3 0.0
20/11:30am 30.3 30.4 21.9 60 5.7 E 24 32 13 17 1009.7 - 0.0
20/11:00am 29.9 30.6 22.3 63 5.2 E 22 32 12 17 1010.4 - 0.0
20/10:30am 29.4 30.3 22.6 67 4.6 E 22 30 12 16 1010.7 - 0.0
20/10:00am 29.0 30.5 23.0 70 4.1 E 20 32 11 17 1010.9 - 0.0
20/09:30am 28.3 29.7 22.5 71 3.9 ESE 19 24 10 13 1010.7 - 0.0
20/09:00am 27.1 28.1 21.8 73 3.5 ESE 19 22 10 12 1010.4 1010.4 0.0
20/08:30am 26.2 28.7 22.5 80 2.5 ESE 13 17 7 9 1010.4 - 0.0
20/08:00am 24.8 27.9 22.9 89 1.3 SSE 11 17 6 9 1010.3 - 0.0
20/07:30am 23.8 27.2 23.3 97 0.3 S 11 15 6 8 1010.0 - 0.0
20/07:00am 23.2 26.9 23.2 100 0.0 S 9 11 5 6 1009.9 - 0.0
20/06:30am 23.1 26.7 23.1 100 0.0 SSW 9 13 5 7 1009.5 - 0.0
20/06:00am 23.1 27.1 23.1 100 0.0 S 7 9 4 5 1009.1 1009.1 0.0
20/05:30am 23.1 27.1 23.1 100 0.0 S 7 11 4 6 1008.5 - 0.0
20/05:00am 23.3 27.4 23.3 100 0.0 S 7 11 4 6 1008.3 - 0.0
20/04:30am 23.4 27.6 23.4 100 0.0 S 7 9 4 5 1008.6 - 0.0
20/04:00am 23.4 27.6 23.4 100 0.0 S 7 11 4 6 1008.6 - 0.0
20/03:30am 23.6 27.1 23.6 100 0.0 S 11 13 6 7 1008.7 - 0.0
20/03:00am 23.7 27.7 23.7 100 0.0 S 9 13 5 7 1008.5 1008.5 0.0
20/02:30am 23.7 27.5 23.5 99 0.1 SSE 9 13 5 7 1008.4 - 0.0
20/02:00am 23.7 27.7 23.7 100 0.0 SSE 9 11 5 6 1008.6 - 0.0
20/01:30am 23.7 28.8 23.4 98 0.2 SSE 2 6 1 3 1009.0 - 0.0
20/01:00am 23.7 29.0 23.0 96 0.5 CALM 0 0 0 0 1009.5 - 0.0
20/12:30am 23.6 28.4 22.2 92 0.9 CALM 0 0 0 0 1010.1 - 0.0
20/12:00am 23.7 27.1 22.0 90 1.1 E 7 9 4 5 1010.4 1010.4 0.0
 
Date/Time
CST
Tmp

°C
App
Tmp
°C
Dew
Point
°C
Rel
Hum
%
Delta-T

°C
Wind Press
QNH
hPa
Press
MSL
hPa
Rain
since
9 am
mm
Dir
 
Spd
km/h
Gust
km/h
Spd
kts
Gust
kts
19/11:30pm 24.0 26.9 21.7 87 1.5 SE 9 11 5 6 1010.7 - 0.0
19/11:00pm 24.5 26.7 21.2 82 2.2 SE 11 15 6 8 1011.0 - 0.0
19/10:30pm 25.1 27.1 21.6 81 2.3 ESE 13 20 7 11 1011.1 - 0.0
19/10:00pm 25.8 25.6 21.2 76 3.0 E 24 32 13 17 1011.2 - 0.0
19/09:30pm 25.8 25.3 20.8 74 3.3 E 24 32 13 17 1011.4 - 0.0
19/09:00pm 26.5 26.4 21.5 74 3.3 E 24 35 13 19 1011.1 1011.1 0.0
19/08:30pm 26.6 26.1 22.2 77 3.0 ENE 28 39 15 21 1010.7 - 0.0
19/08:00pm 26.7 25.3 21.9 75 3.2 E 32 46 17 25 1010.6 - 0.0
19/07:30pm 26.7 25.1 21.9 75 3.2 E 33 44 18 24 1010.3 - 0.0
19/07:00pm 27.7 26.8 22.2 72 3.7 ENE 30 41 16 22 1009.5 - 0.0
19/06:34pm 28.0 27.9 22.9 74 3.5 E 28 46 15 25 1009.3 - 0.0
19/06:30pm 28.1 27.9 22.8 73 3.6 E 28 41 15 22 1009.3 - 0.0
19/06:00pm 27.6 28.8 23.8 80 2.6 ENE 24 33 13 18 1008.7 1008.7 0.0
19/05:30pm 28.1 27.4 23.2 74 3.3 ENE 32 44 17 24 1008.3 - 0.0
19/05:00pm 28.6 27.8 23.3 73 3.6 ENE 33 46 18 25 1007.5 - 0.0
19/04:52pm 28.8 29.3 23.9 75 3.4 NE 28 48 15 26 1007.6 - 0.0
19/04:30pm 31.4 34.2 24.3 66 5.0 NNE 17 24 9 13 1007.1 - 0.0
19/04:00pm 31.4 33.2 23.2 61 5.6 NE 19 26 10 14 1007.0 - 0.0
19/03:30pm 31.4 33.3 23.5 63 5.5 NNE 19 28 10 15 1007.0 - 0.0
19/03:00pm 31.3 33.6 23.4 63 5.5 NNE 17 24 9 13 1007.1 1007.1 0.0
19/02:30pm 31.6 35.0 24.7 67 4.8 NNE 15 20 8 11 1007.4 - 0.0
19/02:00pm 31.1 33.6 24.5 68 4.6 NE 19 24 10 13 1007.9 - 0.0
19/01:30pm 31.0 33.6 23.9 66 4.9 NE 17 22 9 12 1008.4 - 0.0
19/01:00pm 30.7 34.2 23.6 66 4.9 NE 11 19 6 10 1008.8 - 0.0
19/12:30pm 30.9 35.1 24.8 70 4.3 ENE 11 17 6 9 1009.4 - 0.0
19/12:00pm 30.4 33.6 24.3 70 4.3 ENE 15 20 8 11 1010.0 1010.0 0.0
19/11:30am 29.9 32.5 23.3 67 4.5 E 15 20 8 11 1010.5 - 0.0
19/11:00am 29.7 32.8 24.1 72 3.9 E 15 24 8 13 1010.8 - 0.0
19/10:30am 29.2 31.8 23.9 73 3.7 E 17 22 9 12 1011.1 - 0.0
19/10:00am 28.3 30.7 23.7 76 3.2 E 17 24 9 13 1011.2 - 0.0
19/09:30am 27.9 30.5 23.3 76 3.1 E 15 24 8 13 1011.3 - 0.0
19/09:00am 26.6 29.5 23.9 85 1.9 ESE 15 20 8 11 1011.1 1011.1 7.6
19/08:30am 26.1 29.9 24.0 88 1.4 ESE 11 13 6 7 1011.1 - 7.6
19/08:00am 25.1 29.7 24.8 98 0.2 ESE 9 13 5 7 1011.0 - 7.6
19/07:30am 24.2 28.5 24.2 100 0.0 SE 9 11 5 6 1010.9 - 7.6
19/07:00am 23.9 28.4 23.9 100 0.0 SSE 7 7 4 4 1011.0 - 7.6
19/06:30am 23.7 28.0 23.7 100 0.0 SSE 7 9 4 5 1010.6 - 7.6
19/06:00am 23.6 27.5 23.6 100 0.0 SSE 9 11 5 6 1010.4 1010.4 7.6
19/05:30am 23.7 28.0 23.7 100 0.0 SSE 7 9 4 5 1010.4 - 7.6
19/05:00am 23.6 28.1 23.6 100 0.0 E 6 7 3 4 1010.2 - 7.6
19/04:30am 23.6 28.1 23.6 100 0.0 ESE 6 7 3 4 1010.1 - 7.6
19/04:00am 23.9 29.7 23.9 100 0.0 CALM 0 0 0 0 1009.9 - 7.6
19/03:30am 23.9 28.4 23.9 100 0.0 SSE 7 7 4 4 1009.7 - 7.6
19/03:00am 24.0 29.1 24.0 100 0.0 SE 4 7 2 4 1010.0 1010.0 7.6
19/02:30am 24.1 28.7 24.1 100 0.0 ESE 7 9 4 5 1010.1 - 7.6
19/02:00am 24.1 29.2 24.1 100 0.0 ESE 4 9 2 5 1010.4 - 7.6
19/01:30am 24.1 30.0 24.1 100 0.0 CALM 0 0 0 0 1010.7 - 7.6
19/01:00am 24.4 29.2 24.4 100 0.0 SE 7 9 4 5 1011.0 - 7.6
19/12:30am 24.1 30.0 24.1 100 0.0 CALM 0 0 0 0 1011.5 - 7.6
19/12:00am 24.3 30.3 24.3 100 0.0 CALM 0 6 0 3 1011.5 1011.5 7.6
 
Date/Time
CST
Tmp

°C
App
Tmp
°C
Dew
Point
°C
Rel
Hum
%
Delta-T

°C
Wind Press
QNH
hPa
Press
MSL
hPa
Rain
since
9 am
mm
Dir
 
Spd
km/h
Gust
km/h
Spd
kts
Gust
kts
18/11:30pm 24.3 29.0 24.3 100 0.0 ESE 7 11 4 6 1011.4 - 7.6
18/11:00pm 24.4 28.8 24.4 100 0.0 SE 9 13 5 7 1011.3 - 7.6
18/10:30pm 24.5 27.8 24.5 100 0.0 SE 15 20 8 11 1011.3 - 7.6
18/10:00pm 24.5 27.4 24.5 100 0.0 ESE 17 24 9 13 1011.4 - 7.6
18/09:30pm 24.5 27.4 24.5 100 0.0 ESE 17 22 9 12 1011.8 - 7.6
18/09:00pm 24.6 27.6 24.6 100 0.0 SE 17 20 9 11 1012.1 1012.1 7.6
18/08:30pm 24.6 27.6 24.6 100 0.0 SE 17 24 9 13 1011.8 - 7.6
18/08:00pm 24.5 26.8 24.5 100 0.0 SE 20 26 11 14 1011.3 - 7.6
18/07:30pm 24.2 26.4 24.2 100 0.0 SE 20 28 11 15 1011.0 - 7.6
18/07:00pm 24.5 27.8 24.5 100 0.0 ESE 15 24 8 13 1010.9 - 7.4
18/06:30pm 24.1 24.7 24.1 100 0.0 E 28 41 15 22 1010.9 - 5.4
18/06:07pm 24.2 22.6 23.9 98 0.2 ESE 39 61 21 33 1011.0 - 3.2
18/06:04pm 24.5 23.8 24.2 98 0.2 ESE 35 44 19 24 1010.9 - 2.6
18/06:00pm 25.1 28.3 24.4 96 0.5 SE 15 24 8 13 1010.5 1010.5 1.6
18/05:30pm 28.4 32.9 25.8 86 1.8 NE 13 17 7 9 1009.6 - 1.4
18/05:00pm 29.3 33.9 25.9 82 2.4 NNE 13 20 7 11 1008.8 - 1.4
18/04:30pm 29.4 32.9 25.4 79 2.8 NE 17 24 9 13 1008.6 - 1.4
18/04:00pm 29.8 33.5 25.8 79 2.8 NE 17 22 9 12 1008.3 - 1.4
18/03:30pm 29.7 34.7 26.5 83 2.3 NNE 13 20 7 11 1008.4 - 1.4
18/03:00pm 27.3 33.2 26.2 94 0.8 N 7 11 4 6 1008.5 1008.5 1.4
18/02:30pm 29.5 34.2 25.5 79 2.8 E 11 17 6 9 1008.9 - 0.0
18/02:00pm 30.8 34.4 23.7 66 4.9 NE 11 19 6 10 1009.0 - 0.0

Latest Capital City Observations: Canberra | Sydney | Melbourne | Brisbane | Adelaide | Perth | Hobart | Darwin

Other Formats:

Comma delimited format used in spreadsheet applications
http://www.bom.gov.au/fwo/IDD60901/IDD60901.94127.axf

JavaScript Object Notation format (JSON) in row-major order
http://www.bom.gov.au/fwo/IDD60901/IDD60901.94127.json